Time;durP1;ratioP1;P1;durP2;ratioP2;P2;SDS_P1;SDS_P2;PMS_P1;PMS_P2;Temp;Humidity;BMP_temperature;BMP_pressure;BME280_temperature;BME280_humidity;BME280_pressure;Samples;Min_cycle;Max_cycle;Signal;HPM_P1;HPM_P2
2023/01/18 00:00:46;;;;;;;38.42;25.17;;;;;;;;;;5068384;28;20389;-60
2023/01/18 00:03:13;;;;;;;42.97;24.50;;;;;;;;;;5066609;28;20029;-60
2023/01/18 00:05:40;;;;;;;37.35;24.48;;;;;;;;;;5067925;28;20013;-60
2023/01/18 00:08:15;;;;;;;37.35;25.25;;;;;;;;;;5067705;28;20086;-59
2023/01/18 00:10:41;;;;;;;37.92;24.80;;;;;;;;;;5066534;28;20024;-61
2023/01/18 00:13:08;;;;;;;42.42;25.80;;;;;;;;;;5066174;28;20131;-59
2023/01/18 00:15:34;;;;;;;33.15;24.00;;;;;;;;;;5067664;28;20043;-60
2023/01/18 00:18:00;;;;;;;34.80;24.60;;;;;;;;;;5067470;28;20025;-59
2023/01/18 00:20:27;;;;;;;36.33;24.60;;;;;;;;;;5066499;28;20081;-58
2023/01/18 00:22:53;;;;;;;37.28;23.98;;;;;;;;;;5068174;28;20411;-55
2023/01/18 00:25:20;;;;;;;33.85;22.83;;;;;;;;;;5070342;28;20396;-58
2023/01/18 00:27:51;;;;;;;37.47;23.40;;;;;;;;;;5065761;22;20056;-63
2023/01/18 00:30:19;;;;;;;39.95;26.33;;;;;;;;;;5014164;28;20040;-60
2023/01/18 00:32:45;;;;;;;;;;;;;;;;;;5014687;28;20032;-60
2023/01/18 00:35:11;;;;;;;34.35;24.02;;;;;;;;;;5014019;28;19905;-62
2023/01/18 00:37:38;;;;;;;38.22;24.85;;;;;;;;;;5014099;28;20376;-61
2023/01/18 00:40:04;;;;;;;39.30;24.58;;;;;;;;;;5012931;28;20026;-62
2023/01/18 00:45:15;;;;;;;40.67;25.15;;;;;;;;;;5014264;28;20037;-60
2023/01/18 00:47:41;;;;;;;34.55;24.08;;;;;;;;;;5013473;28;20454;-61
2023/01/18 00:50:08;;;;;;;36.80;23.88;;;;;;;;;;5013608;28;20026;-61
2023/01/18 00:52:34;;;;;;;33.33;23.98;;;;;;;;;;5013287;28;20041;-61
2023/01/18 00:55:00;;;;;;;36.55;25.08;;;;;;;;;;5013210;28;20033;-61
2023/01/18 00:57:26;;;;;;;37.25;24.60;;;;;;;;;;5013261;28;20022;-60
2023/01/18 00:59:52;;;;;;;39.45;25.10;;;;;;;;;;5014685;28;20033;-61
2023/01/18 01:02:18;;;;;;;35.95;24.33;;;;;;;;;;5014535;28;20437;-60
2023/01/18 01:07:29;;;;;;;39.25;25.77;;;;;;;;;;5014411;28;20462;-60
2023/01/18 01:09:56;;;;;;;34.63;23.30;;;;;;;;;;5014680;28;20057;-60
2023/01/18 01:26:08;;;;;;;36.33;24.42;;;;;;;;;;5014132;28;20033;-60
2023/01/18 01:28:34;;;;;;;36.67;24.67;;;;;;;;;;5012883;28;20406;-60
2023/01/18 01:31:01;;;;;;;38.45;24.92;;;;;;;;;;5014039;28;20014;-61
2023/01/18 01:33:27;;;;;;;38.00;24.45;;;;;;;;;;5012472;28;20113;-59
2023/01/18 01:35:57;;;;;;;38.17;24.05;;;;;;;;;;5013908;28;20080;-58
2023/01/18 01:38:23;;;;;;;36.75;23.50;;;;;;;;;;5013937;28;20030;-60
2023/01/18 01:41:03;;;;;;;36.63;24.58;;;;;;;;;;5012287;28;20033;-60
2023/01/18 01:43:48;;;;;;;35.25;23.77;;;;;;;;;;5013536;28;20029;-59
2023/01/18 01:46:14;;;;;;;37.13;24.27;;;;;;;;;;5012760;28;20026;-60
2023/01/18 01:48:40;;;;;;;47.63;23.55;;;;;;;;;;5013783;28;20309;-61
2023/01/18 01:51:06;;;;;;;38.95;23.73;;;;;;;;;;5013466;28;20053;-58
2023/01/18 01:53:32;;;;;;;40.20;24.02;;;;;;;;;;5013499;28;20026;-60
2023/01/18 01:55:58;;;;;;;35.58;23.52;;;;;;;;;;5013704;28;20026;-58
2023/01/18 01:58:27;;;;;;;37.17;24.50;;;;;;;;;;5013436;28;20103;-56
2023/01/18 02:00:53;;;;;;;38.53;24.40;;;;;;;;;;5013535;28;20022;-61
2023/01/18 02:03:21;;;;;;;35.25;23.10;;;;;;;;;;5013087;28;20509;-59
2023/01/18 02:05:49;;;;;;;31.40;22.80;;;;;;;;;;5013463;28;20026;-60
2023/01/18 02:08:21;;;;;;;35.00;24.75;;;;;;;;;;5011909;28;20022;-59
2023/01/18 02:10:47;;;;;;;37.00;25.50;;;;;;;;;;5013435;28;20018;-61
2023/01/18 02:13:13;;;;;;;39.90;24.90;;;;;;;;;;5011723;28;20030;-58
2023/01/18 02:15:52;;;;;;;36.20;23.70;;;;;;;;;;5013123;28;20034;-60
2023/01/18 02:18:23;;;;;;;37.35;25.15;;;;;;;;;;5011861;28;20126;-59
2023/01/18 02:20:58;;;;;;;37.58;24.77;;;;;;;;;;5011857;28;20026;-60
2023/01/18 02:23:27;;;;;;;35.45;23.90;;;;;;;;;;5012852;28;20076;-60
2023/01/18 02:26:12;;;;;;;35.70;23.23;;;;;;;;;;5012883;28;20026;-59
2023/01/18 02:28:39;;;;;;;33.85;23.05;;;;;;;;;;5011565;28;20057;-59
2023/01/18 02:31:17;;;;;;;38.15;24.92;;;;;;;;;;5013049;28;20022;-60
2023/01/18 02:33:53;;;;;;;41.83;25.10;;;;;;;;;;5012709;28;20033;-60
2023/01/18 02:36:40;;;;;;;38.00;24.92;;;;;;;;;;5012826;28;20137;-61
2023/01/18 02:39:10;;;;;;;35.38;22.92;;;;;;;;;;5004518;28;20142;-61
2023/01/18 02:47:23;;;;;;;34.55;23.80;;;;;;;;;;5012604;28;20033;-60
2023/01/18 02:49:49;;;;;;;38.47;24.27;;;;;;;;;;5012566;28;20477;-59
2023/01/18 02:52:34;;;;;;;41.92;27.00;;;;;;;;;;5011702;28;20026;-60
2023/01/18 02:55:00;;;;;;;40.75;25.30;;;;;;;;;;5030404;28;20079;-59
2023/01/18 02:57:26;;;;;;;33.75;23.70;;;;;;;;;;5032144;28;20144;-59
2023/01/18 02:59:56;;;;;;;39.55;25.17;;;;;;;;;;5032323;28;20029;-60
2023/01/18 03:02:25;;;;;;;33.78;23.27;;;;;;;;;;5030710;28;20029;-61
2023/01/18 03:04:55;;;;;;;36.35;24.88;;;;;;;;;;5030463;28;20026;-61
2023/01/18 03:07:21;;;;;;;37.97;26.33;;;;;;;;;;5032103;28;20025;-60
2023/01/18 03:09:47;;;;;;;39.60;24.33;;;;;;;;;;5031906;28;20017;-60
2023/01/18 03:12:45;;;;;;;36.30;26.55;;;;;;;;;;5030726;28;20033;-58
2023/01/18 03:15:30;;;;;;;34.13;24.20;;;;;;;;;;5019759;28;20405;-60
2023/01/18 03:17:58;;;;;;;39.38;25.42;;;;;;;;;;5031812;28;20108;-60
2023/01/18 03:20:26;;;;;;;36.05;24.48;;;;;;;;;;5031853;28;20029;-60
2023/01/18 03:25:50;;;;;;;36.45;25.38;;;;;;;;;;5031850;28;20037;-61
2023/01/18 03:34:19;;;;;;;34.45;24.88;;;;;;;;;;5031685;28;20128;-60
2023/01/18 03:36:46;;;;;;;38.58;25.50;;;;;;;;;;5031663;28;20438;-60
2023/01/18 03:39:17;;;;;;;35.17;25.37;;;;;;;;;;5031602;28;20386;-58
2023/01/18 03:41:45;;;;;;;36.38;25.95;;;;;;;;;;5030186;28;20025;-59
2023/01/18 03:44:11;;;;;;;;;;;;;;;;;;5031794;28;20033;-61
2023/01/18 03:46:38;;;;;;;38.42;25.27;;;;;;;;;;5031410;28;19905;-59
2023/01/18 03:49:04;;;;;;;40.47;25.15;;;;;;;;;;5031462;28;20104;-60
2023/01/18 03:51:36;;;;;;;37.25;25.63;;;;;;;;;;5031256;28;20021;-60
2023/01/18 03:54:11;;;;;;;33.50;24.25;;;;;;;;;;5031149;28;20044;-60
2023/01/18 03:56:56;;;;;;;42.13;26.08;;;;;;;;;;5031431;28;20044;-58
2023/01/18 03:59:22;;;;;;;41.35;26.00;;;;;;;;;;5031349;28;20028;-60
2023/01/18 04:01:48;;;;;;;33.25;24.02;;;;;;;;;;5031182;28;20474;-61
2023/01/18 04:04:14;;;;;;;36.67;26.17;;;;;;;;;;5033047;28;20116;-60
2023/01/18 04:06:41;;;;;;;36.15;24.98;;;;;;;;;;5034309;28;20105;-60
2023/01/18 04:09:07;;;;;;;33.40;25.17;;;;;;;;;;5035280;28;20152;-60
2023/01/18 04:11:33;;;;;;;38.90;26.02;;;;;;;;;;5034083;28;20128;-60
2023/01/18 04:13:59;;;;;;;38.45;26.77;;;;;;;;;;5035106;28;20044;-60
2023/01/18 04:16:25;;;;;;;33.65;24.30;;;;;;;;;;5033915;28;20490;-60
2023/01/18 04:18:51;;;;;;;33.85;25.23;;;;;;;;;;5035147;28;20029;-61
2023/01/18 04:21:17;;;;;;;35.35;26.00;;;;;;;;;;5034907;28;20363;-61
2023/01/18 04:23:43;;;;;;;34.95;27.08;;;;;;;;;;5033448;28;20083;-62
2023/01/18 04:26:10;;;;;;;38.85;26.60;;;;;;;;;;5033680;28;20060;-61
2023/01/18 04:28:36;;;;;;;39.05;25.85;;;;;;;;;;5033572;28;20029;-61
2023/01/18 04:31:02;;;;;;;36.53;26.55;;;;;;;;;;5033788;28;20036;-61
2023/01/18 04:33:28;;;;;;;38.05;26.88;;;;;;;;;;5035149;28;20029;-60
2023/01/18 04:35:54;;;;;;;39.65;26.42;;;;;;;;;;5034911;28;20025;-57
2023/01/18 04:38:20;;;;;;;42.10;26.73;;;;;;;;;;5034722;28;20025;-60
2023/01/18 04:40:46;;;;;;;39.60;27.23;;;;;;;;;;5035282;28;20033;-59
2023/01/18 04:43:12;;;;;;;41.15;27.25;;;;;;;;;;5034589;28;20048;-58
2023/01/18 04:45:38;;;;;;;32.50;24.92;;;;;;;;;;5033440;28;20052;-58
2023/01/18 04:48:04;;;;;;;37.38;25.15;;;;;;;;;;5034364;28;20018;-60
2023/01/18 04:50:30;;;;;;;39.25;25.85;;;;;;;;;;5033398;28;20033;-60
2023/01/18 04:52:57;;;;;;;37.85;26.58;;;;;;;;;;5033133;28;20025;-60
2023/01/18 04:55:23;;;;;;;38.17;24.83;;;;;;;;;;5032910;28;20021;-60
2023/01/18 04:57:55;;;;;;;39.55;26.33;;;;;;;;;;5032772;28;20176;-60
2023/01/18 05:00:21;;;;;;;35.25;24.40;;;;;;;;;;5034228;28;20025;-58
2023/01/18 05:02:47;;;;;;;37.65;24.17;;;;;;;;;;5034515;28;20029;-60
2023/01/18 05:05:13;;;;;;;38.78;23.52;;;;;;;;;;5034330;28;20096;-60
2023/01/18 05:07:39;;;;;;;35.45;24.27;;;;;;;;;;5032792;28;20175;-58
2023/01/18 05:10:05;;;;;;;35.95;24.55;;;;;;;;;;5034049;28;20113;-57
2023/01/18 05:12:31;;;;;;;33.80;23.85;;;;;;;;;;5033670;28;20021;-60
2023/01/18 05:14:57;;;;;;;34.08;25.33;;;;;;;;;;5031561;28;20389;-61
2023/01/18 05:17:26;;;;;;;34.00;24.08;;;;;;;;;;5033773;28;20100;-60
2023/01/18 05:19:53;;;;;;;38.47;24.17;;;;;;;;;;5033862;28;20025;-60
2023/01/18 05:22:20;;;;;;;35.30;25.45;;;;;;;;;;5033835;28;20022;-56
2023/01/18 05:24:47;;;;;;;37.95;25.52;;;;;;;;;;5032661;28;20437;-61
2023/01/18 05:27:13;;;;;;;37.88;25.67;;;;;;;;;;5032308;28;20032;-59
2023/01/18 05:29:39;;;;;;;37.70;25.33;;;;;;;;;;5033792;28;20425;-61
2023/01/18 05:32:05;;;;;;;37.63;25.70;;;;;;;;;;5032379;28;20057;-62
2023/01/18 05:34:31;;;;;;;34.45;25.00;;;;;;;;;;5033323;28;20473;-58
2023/01/18 05:36:57;;;;;;;32.33;24.55;;;;;;;;;;5032385;28;20404;-61
2023/01/18 05:39:24;;;;;;;35.67;25.20;;;;;;;;;;5032103;28;20030;-62
2023/01/18 05:41:50;;;;;;;34.95;25.58;;;;;;;;;;5032235;28;20029;-61
2023/01/18 05:44:16;;;;;;;31.45;24.30;;;;;;;;;;5031928;28;20049;-61
2023/01/18 05:46:42;;;;;;;38.05;25.95;;;;;;;;;;5033317;28;20021;-62
2023/01/18 05:49:08;;;;;;;31.90;23.73;;;;;;;;;;5033307;28;20143;-60
2023/01/18 05:51:34;;;;;;;33.78;24.15;;;;;;;;;;5032175;28;20159;-60
2023/01/18 05:54:00;;;;;;;32.25;24.67;;;;;;;;;;5031796;28;20041;-61
2023/01/18 05:56:26;;;;;;;32.90;25.33;;;;;;;;;;5033274;28;20044;-60
2023/01/18 05:58:52;;;;;;;37.33;26.95;;;;;;;;;;5032950;28;20486;-59
2023/01/18 06:01:18;;;;;;;34.13;26.98;;;;;;;;;;5032866;28;20048;-62
2023/01/18 06:03:45;;;;;;;36.05;25.95;;;;;;;;;;5032999;28;20061;-60
2023/01/18 06:06:11;;;;;;;39.53;26.27;;;;;;;;;;5033084;28;20064;-61
2023/01/18 06:08:37;;;;;;;35.55;26.10;;;;;;;;;;5033166;28;20029;-62
2023/01/18 06:11:03;;;;;;;36.35;25.83;;;;;;;;;;5032904;28;20025;-63
2023/01/18 06:13:30;;;;;;;30.95;23.92;;;;;;;;;;5032352;28;20025;-62
2023/01/18 06:15:57;;;;;;;34.72;26.20;;;;;;;;;;5032311;28;20034;-58
2023/01/18 06:18:24;;;;;;;38.17;26.52;;;;;;;;;;5032386;28;20029;-62
2023/01/18 06:20:53;;;;;;;34.28;25.70;;;;;;;;;;5032761;28;20024;-59
2023/01/18 06:23:19;;;;;;;32.72;25.02;;;;;;;;;;5032043;28;20029;-62
2023/01/18 06:25:45;;;;;;;37.83;26.45;;;;;;;;;;5031072;28;20079;-59
2023/01/18 06:28:11;;;;;;;38.40;25.90;;;;;;;;;;5033061;28;20442;-61
2023/01/18 06:30:38;;;;;;;36.55;25.95;;;;;;;;;;5032206;28;20092;-62
2023/01/18 06:33:05;;;;;;;35.17;25.25;;;;;;;;;;5031115;28;20474;-61
2023/01/18 06:35:35;;;;;;;37.38;27.45;;;;;;;;;;5030266;28;20107;-59
2023/01/18 06:38:01;;;;;;;38.08;26.40;;;;;;;;;;5031826;28;20025;-62
2023/01/18 06:40:28;;;;;;;30.80;25.52;;;;;;;;;;5032033;28;20025;-61
2023/01/18 06:42:54;;;;;;;38.65;25.33;;;;;;;;;;5030502;28;20075;-61
2023/01/18 06:45:20;;;;;;;35.92;24.80;;;;;;;;;;5030949;28;20018;-61
2023/01/18 06:47:48;;;;;;;31.42;23.10;;;;;;;;;;5030583;28;20057;-59
2023/01/18 06:50:14;;;;;;;31.65;24.10;;;;;;;;;;5031189;28;20022;-60
2023/01/18 06:52:44;;;;;;;38.60;25.10;;;;;;;;;;5031295;28;20485;-61
2023/01/18 06:55:10;;;;;;;37.17;25.35;;;;;;;;;;5031310;28;20140;-61
2023/01/18 06:57:36;;;;;;;41.08;24.95;;;;;;;;;;5031339;28;20030;-59
2023/01/18 07:00:05;;;;;;;34.95;24.70;;;;;;;;;;5031790;28;20033;-62
2023/01/18 07:02:31;;;;;;;;;;;;;;;;;;5032001;28;20074;-61
2023/01/18 07:04:57;;;;;;;38.58;25.08;;;;;;;;;;5031362;28;20349;-63
2023/01/18 07:07:23;;;;;;;36.13;24.25;;;;;;;;;;5031215;28;20026;-61
2023/01/18 07:09:49;;;;;;;34.92;24.58;;;;;;;;;;5031600;28;20544;-63
2023/01/18 07:12:15;;;;;;;30.65;23.23;;;;;;;;;;5031107;28;20029;-60
2023/01/18 07:14:41;;;;;;;37.40;27.25;;;;;;;;;;5031091;28;20030;-61
2023/01/18 07:17:07;;;;;;;32.75;24.30;;;;;;;;;;5031245;28;20025;-62
2023/01/18 07:19:33;;;;;;;36.13;23.90;;;;;;;;;;5029933;28;20021;-61
2023/01/18 07:22:00;;;;;;;35.45;25.52;;;;;;;;;;5031024;28;20033;-62
2023/01/18 07:24:26;;;;;;;38.80;26.33;;;;;;;;;;5031409;28;20076;-62
2023/01/18 07:26:53;;;;;;;37.45;26.20;;;;;;;;;;5029767;28;20489;-61
2023/01/18 07:29:19;;;;;;;36.67;25.15;;;;;;;;;;5031312;28;20064;-61
2023/01/18 07:31:45;;;;;;;38.47;25.35;;;;;;;;;;5031464;28;20029;-62
2023/01/18 07:34:12;;;;;;;43.45;25.40;;;;;;;;;;5029474;28;20028;-59
2023/01/18 07:36:38;;;;;;;37.67;26.45;;;;;;;;;;5031256;28;20052;-60
2023/01/18 07:39:05;;;;;;;47.10;28.10;;;;;;;;;;5029845;28;20018;-60
2023/01/18 07:41:31;;;;;;;41.78;26.55;;;;;;;;;;5030933;28;20105;-60
2023/01/18 07:43:57;;;;;;;36.78;26.40;;;;;;;;;;5030292;28;20041;-58
2023/01/18 07:46:24;;;;;;;36.35;26.38;;;;;;;;;;5031149;28;20119;-60
2023/01/18 07:48:51;;;;;;;37.25;25.35;;;;;;;;;;5031081;28;20025;-59
2023/01/18 07:51:18;;;;;;;40.17;25.85;;;;;;;;;;5029416;28;20116;-61
2023/01/18 07:53:44;;;;;;;40.28;29.00;;;;;;;;;;5030528;28;20033;-62
2023/01/18 07:56:17;;;;;;;42.60;27.95;;;;;;;;;;5029785;28;20029;-59
2023/01/18 07:58:43;;;;;;;40.17;26.00;;;;;;;;;;5030648;28;20032;-57
2023/01/18 08:01:11;;;;;;;32.72;24.27;;;;;;;;;;5030587;28;20029;-58
2023/01/18 08:03:37;;;;;;;34.87;23.93;;;;;;;;;;5030721;28;20036;-61
2023/01/18 08:06:04;;;;;;;36.13;24.42;;;;;;;;;;5030004;28;20028;-62
2023/01/18 08:08:30;;;;;;;62.63;28.15;;;;;;;;;;5030630;28;20504;-61
2023/01/18 08:10:57;;;;;;;38.42;24.08;;;;;;;;;;5029228;28;20103;-57
2023/01/18 08:13:24;;;;;;;45.00;25.42;;;;;;;;;;5031136;28;20433;-62
2023/01/18 08:15:50;;;;;;;36.50;24.10;;;;;;;;;;5010451;28;20022;-59
2023/01/18 08:18:16;;;;;;;38.30;24.80;;;;;;;;;;5010971;28;20040;-61
2023/01/18 08:20:46;;;;;;;42.28;26.50;;;;;;;;;;5009904;28;20026;-61
2023/01/18 08:23:13;;;;;;;37.53;24.15;;;;;;;;;;5010915;28;20026;-59
2023/01/18 08:25:39;;;;;;;37.92;27.73;;;;;;;;;;5011387;28;20146;-61
2023/01/18 08:28:05;;;;;;;43.38;27.88;;;;;;;;;;5011322;28;20491;-62
2023/01/18 08:30:33;;;;;;;41.65;28.13;;;;;;;;;;5011374;28;20058;-61
2023/01/18 08:33:00;;;;;;;40.58;27.17;;;;;;;;;;5010989;28;20075;-60
2023/01/18 08:35:27;;;;;;;38.47;27.40;;;;;;;;;;5011035;28;20037;-59
2023/01/18 08:37:53;;;;;;;39.03;24.92;;;;;;;;;;5010774;28;20030;-61
2023/01/18 08:40:20;;;;;;;41.67;24.92;;;;;;;;;;5010948;28;20501;-62
2023/01/18 08:42:46;;;;;;;44.50;26.48;;;;;;;;;;5010836;28;20160;-61
2023/01/18 08:45:13;;;;;;;37.78;25.25;;;;;;;;;;5009356;28;20033;-58
2023/01/18 08:47:39;;;;;;;37.30;25.42;;;;;;;;;;5010938;28;20042;-65
2023/01/18 08:50:06;;;;;;;40.35;27.63;;;;;;;;;;5010691;28;20037;-65
2023/01/18 08:52:33;;;;;;;44.13;27.52;;;;;;;;;;5014770;28;20408;-65
2023/01/18 08:55:00;;;;;;;41.22;26.45;;;;;;;;;;5014442;28;20498;-65
2023/01/18 08:57:29;;;;;;;41.63;27.40;;;;;;;;;;5013229;28;20038;-64
2023/01/18 08:59:55;;;;;;;35.88;24.73;;;;;;;;;;5013480;28;20029;-66
2023/01/18 09:02:25;;;;;;;41.17;26.65;;;;;;;;;;5013181;28;20083;-65
2023/01/18 09:04:52;;;;;;;39.00;27.02;;;;;;;;;;5012846;28;20324;-64
2023/01/18 09:07:19;;;;;;;44.50;27.38;;;;;;;;;;5013020;28;20393;-64
2023/01/18 09:09:45;;;;;;;38.80;26.30;;;;;;;;;;5013498;28;20027;-65
2023/01/18 09:12:12;;;;;;;36.25;26.40;;;;;;;;;;5012953;28;20117;-65
2023/01/18 09:14:38;;;;;;;40.03;25.05;;;;;;;;;;5012720;28;20021;-65
2023/01/18 09:17:04;;;;;;;40.75;26.00;;;;;;;;;;5014229;28;20443;-60
2023/01/18 09:19:31;;;;;;;36.00;24.35;;;;;;;;;;5013801;28;20061;-55
2023/01/18 09:21:57;;;;;;;37.08;25.90;;;;;;;;;;5014224;28;20030;-56
2023/01/18 09:24:24;;;;;;;39.65;22.20;;;;;;;;;;5014005;28;20018;-60
2023/01/18 09:26:51;;;;;;;38.33;25.98;;;;;;;;;;5013474;28;20022;-62
2023/01/18 09:29:17;;;;;;;37.45;22.98;;;;;;;;;;5009951;28;20036;-61
2023/01/18 09:31:43;;;;;;;36.80;25.23;;;;;;;;;;5013554;28;20553;-60
2023/01/18 09:34:09;;;;;;;38.00;26.35;;;;;;;;;;5012295;28;20034;-59
2023/01/18 09:36:35;;;;;;;41.10;26.63;;;;;;;;;;5013806;28;20156;-62
2023/01/18 09:39:01;;;;;;;38.78;25.15;;;;;;;;;;5012286;28;20022;-57
2023/01/18 09:41:31;;;;;;;37.95;25.65;;;;;;;;;;5013689;28;20076;-58
2023/01/18 09:43:59;;;;;;;32.38;22.08;;;;;;;;;;5013387;28;20036;-59
2023/01/18 09:46:26;;;;;;;45.60;26.38;;;;;;;;;;5014018;28;20088;-65
2023/01/18 09:48:57;;;;;;;41.92;25.95;;;;;;;;;;5012876;28;20022;-62
2023/01/18 09:51:26;;;;;;;38.42;26.67;;;;;;;;;;5013656;28;20029;-61
2023/01/18 09:54:08;;;;;;;40.85;25.65;;;;;;;;;;5011967;28;20445;-63
2023/01/18 09:56:43;;;;;;;40.63;25.17;;;;;;;;;;5013146;28;20050;-64
2023/01/18 09:59:26;;;;;;;37.85;24.90;;;;;;;;;;5013009;28;20034;-63
2023/01/18 10:01:52;;;;;;;47.85;26.40;;;;;;;;;;5012808;28;20026;-58
2023/01/18 10:04:29;;;;;;;39.40;25.85;;;;;;;;;;5013150;28;20021;-62
2023/01/18 10:06:57;;;;;;;45.85;27.17;;;;;;;;;;5012072;28;20033;-60
2023/01/18 10:09:23;;;;;;;;;;;;;;;;;;5012353;28;20361;-61
2023/01/18 10:11:54;;;;;;;37.33;24.50;;;;;;;;;;5013031;28;20369;-59
2023/01/18 10:14:30;;;;;;;37.33;25.13;;;;;;;;;;5012366;28;20029;-63
2023/01/18 10:16:58;;;;;;;37.25;26.40;;;;;;;;;;4993159;28;20407;-62
2023/01/18 10:19:26;;;;;;;36.28;24.30;;;;;;;;;;4993182;28;20081;-62
2023/01/18 10:21:52;;;;;;;38.70;25.63;;;;;;;;;;4993100;28;20022;-63
2023/01/18 10:24:27;;;;;;;41.85;26.90;;;;;;;;;;4992958;28;20034;-63
2023/01/18 10:26:56;;;;;;;35.08;25.08;;;;;;;;;;4991924;28;20022;-63
2023/01/18 10:29:41;;;;;;;38.45;23.80;;;;;;;;;;4993008;28;20030;-62
2023/01/18 10:32:13;;;;;;;38.65;25.35;;;;;;;;;;4993117;28;20050;-61
2023/01/18 10:34:42;;;;;;;39.65;25.38;;;;;;;;;;4991400;28;20026;-62
2023/01/18 10:37:14;;;;;;;36.60;22.73;;;;;;;;;;4991560;28;20030;-62
2023/01/18 10:39:43;;;;;;;36.40;24.13;;;;;;;;;;4991220;28;20165;-61
2023/01/18 10:42:17;;;;;;;35.97;23.60;;;;;;;;;;4992568;28;20376;-60
2023/01/18 10:44:43;;;;;;;38.35;24.90;;;;;;;;;;4991455;28;20053;-62
2023/01/18 10:47:10;;;;;;;33.35;22.13;;;;;;;;;;4992696;28;20026;-61
2023/01/18 10:49:40;;;;;;;37.15;26.27;;;;;;;;;;4991586;28;20037;-62
2023/01/18 10:52:16;;;;;;;44.28;26.30;;;;;;;;;;4992493;28;20343;-62
2023/01/18 10:54:48;;;;;;;35.85;24.70;;;;;;;;;;4991095;28;20045;-62
2023/01/18 10:57:19;;;;;;;40.38;27.23;;;;;;;;;;4992432;28;20026;-63
2023/01/18 10:59:45;;;;;;;39.58;26.70;;;;;;;;;;4991502;28;20157;-63
2023/01/18 11:02:19;;;;;;;44.97;28.73;;;;;;;;;;4992231;28;20029;-62
2023/01/18 11:04:45;;;;;;;36.70;24.90;;;;;;;;;;4992364;28;20390;-61
2023/01/18 11:07:12;;;;;;;41.15;26.05;;;;;;;;;;4990894;28;20033;-61
2023/01/18 11:09:38;;;;;;;39.22;26.50;;;;;;;;;;5010667;28;20109;-61
2023/01/18 11:12:37;;;;;;;36.42;24.23;;;;;;;;;;5009522;28;20464;-62
2023/01/18 11:15:15;;;;;;;38.10;24.20;;;;;;;;;;5011195;28;20108;-64
2023/01/18 11:17:45;;;;;;;34.78;24.42;;;;;;;;;;5011603;28;20033;-62
2023/01/18 11:20:16;;;;;;;37.38;23.42;;;;;;;;;;5011576;28;20045;-63
2023/01/18 11:22:54;;;;;;;34.67;22.70;;;;;;;;;;5011761;28;20071;-60
2023/01/18 11:25:20;;;;;;;35.78;23.35;;;;;;;;;;5011836;28;20025;-59
2023/01/18 11:27:49;;;;;;;30.02;20.52;;;;;;;;;;5010310;28;20033;-59
2023/01/18 11:30:22;;;;;;;31.92;22.30;;;;;;;;;;5010119;28;20425;-63
2023/01/18 11:32:50;;;;;;;29.08;20.77;;;;;;;;;;5011456;28;20030;-61
2023/01/18 11:35:30;;;;;;;30.33;21.20;;;;;;;;;;5011564;28;20497;-62
2023/01/18 11:38:07;;;;;;;30.50;20.27;;;;;;;;;;5010101;28;20386;-63
2023/01/18 11:40:34;;;;;;;33.83;18.55;;;;;;;;;;5004609;28;20517;-63
2023/01/18 11:43:02;;;;;;;33.20;20.80;;;;;;;;;;5002194;28;20038;-60
2023/01/18 11:45:28;;;;;;;30.35;19.67;;;;;;;;;;5001746;28;20023;-63
2023/01/18 11:48:08;;;;;;;31.17;20.00;;;;;;;;;;5002444;28;20026;-63
2023/01/18 11:50:46;;;;;;;33.63;20.83;;;;;;;;;;5003184;28;20041;-62
2023/01/18 11:53:25;;;;;;;34.92;19.63;;;;;;;;;;5000366;28;20407;-59
2023/01/18 11:56:00;;;;;;;29.20;19.17;;;;;;;;;;5001687;28;20038;-61
2023/01/18 11:58:27;;;;;;;31.38;20.67;;;;;;;;;;5009614;28;20041;-61
2023/01/18 12:01:12;;;;;;;35.78;19.48;;;;;;;;;;5011024;28;20032;-60
2023/01/18 12:03:38;;;;;;;27.52;17.40;;;;;;;;;;5010549;28;20156;-61
2023/01/18 12:06:16;;;;;;;26.92;16.55;;;;;;;;;;5010091;28;20117;-56
2023/01/18 12:08:45;;;;;;;30.33;20.05;;;;;;;;;;5010540;28;20104;-60
2023/01/18 12:11:18;;;;;;;32.78;21.75;;;;;;;;;;5010791;28;20033;-60
2023/01/18 12:13:58;;;;;;;32.30;20.13;;;;;;;;;;5010187;28;20105;-59
2023/01/18 12:16:42;;;;;;;32.78;20.42;;;;;;;;;;5010351;28;20091;-59
2023/01/18 12:19:26;;;;;;;29.88;18.17;;;;;;;;;;5011232;28;20057;-60
2023/01/18 12:21:52;;;;;;;32.75;21.50;;;;;;;;;;5009442;28;20053;-59
2023/01/18 12:24:18;;;;;;;29.90;21.10;;;;;;;;;;5012925;28;20520;-62
2023/01/18 12:26:54;;;;;;;29.08;19.67;;;;;;;;;;5014387;28;20533;-62
2023/01/18 12:29:23;;;;;;;27.60;19.77;;;;;;;;;;5049548;23;20048;-61
2023/01/18 12:32:07;;;;;;;28.73;18.55;;;;;;;;;;5039331;28;20029;-59
2023/01/18 12:34:36;;;;;;;31.48;20.30;;;;;;;;;;5054690;28;20432;-62
2023/01/18 12:37:18;;;;;;;29.50;20.17;;;;;;;;;;5035949;28;20022;-58
2023/01/18 12:39:53;;;;;;;27.35;18.70;;;;;;;;;;5050317;28;20108;-62
2023/01/18 12:42:25;;;;;;;30.10;18.67;;;;;;;;;;5034955;28;20105;-62
2023/01/18 12:45:01;;;;;;;32.35;19.92;;;;;;;;;;5049198;28;20028;-62
2023/01/18 12:47:26;;;;;;;28.15;19.10;;;;;;;;;;5034071;28;20028;-60
2023/01/18 12:49:56;;;;;;;29.95;18.25;;;;;;;;;;5033967;28;20448;-62
2023/01/18 12:52:23;;;;;;;27.80;17.00;;;;;;;;;;5049095;28;20084;-59
2023/01/18 12:54:57;;;;;;;27.58;17.90;;;;;;;;;;5033929;28;20025;-60
2023/01/18 12:57:24;;;;;;;26.65;18.90;;;;;;;;;;5034207;28;20026;-60
2023/01/18 12:59:55;;;;;;;26.35;17.55;;;;;;;;;;5049294;28;20493;-59
2023/01/18 13:02:32;;;;;;;26.75;17.80;;;;;;;;;;5033825;28;20037;-62
2023/01/18 13:05:13;;;;;;;27.02;16.92;;;;;;;;;;5033546;28;20021;-60
2023/01/18 13:07:42;;;;;;;27.08;16.85;;;;;;;;;;5033927;28;20552;-60
2023/01/18 13:10:14;;;;;;;27.52;19.38;;;;;;;;;;5033585;28;20681;-57
2023/01/18 13:12:41;;;;;;;24.75;18.25;;;;;;;;;;5048749;28;20039;-61
2023/01/18 13:15:07;;;;;;;28.10;20.02;;;;;;;;;;5033298;28;20091;-61
2023/01/18 13:17:45;;;;;;;27.67;18.95;;;;;;;;;;5033919;28;20225;-61
2023/01/18 13:20:11;;;;;;;26.52;17.50;;;;;;;;;;5032189;28;20029;-58
2023/01/18 13:22:56;;;;;;;25.88;17.90;;;;;;;;;;5034132;28;20025;-59
2023/01/18 13:25:22;;;;;;;25.48;16.50;;;;;;;;;;5032823;28;20025;-61
2023/01/18 13:28:00;;;;;;;24.27;16.05;;;;;;;;;;5032454;28;20029;-62
2023/01/18 13:30:27;;;;;;;28.23;16.70;;;;;;;;;;5025169;28;20505;-61
2023/01/18 13:32:54;;;;;;;26.40;16.33;;;;;;;;;;5013864;28;20398;-58
2023/01/18 13:35:23;;;;;;;26.15;16.33;;;;;;;;;;5011826;28;20083;-56
2023/01/18 13:37:50;;;;;;;21.70;15.25;;;;;;;;;;5013600;28;20044;-58
2023/01/18 13:40:24;;;;;;;28.15;16.52;;;;;;;;;;5013630;28;20482;-63
2023/01/18 13:42:50;;;;;;;25.35;15.75;;;;;;;;;;5013945;28;20494;-63
2023/01/18 13:45:26;;;;;;;26.50;15.27;;;;;;;;;;5011803;28;20109;-59
2023/01/18 13:47:54;;;;;;;24.13;15.15;;;;;;;;;;5017615;28;20026;-62
2023/01/18 13:50:30;;;;;;;22.07;14.53;;;;;;;;;;5013505;28;20026;-61
2023/01/18 13:53:14;;;;;;;22.90;15.50;;;;;;;;;;5013323;28;20375;-59
2023/01/18 13:55:41;;;;;;;24.23;14.90;;;;;;;;;;5011309;28;20056;-62
2023/01/18 13:58:25;;;;;;;26.92;15.45;;;;;;;;;;5011524;28;20395;-63
2023/01/18 14:00:52;;;;;;;28.27;15.95;;;;;;;;;;5013562;28;20030;-62
2023/01/18 14:03:24;;;;;;;22.33;15.10;;;;;;;;;;5013697;28;20028;-62
2023/01/18 14:05:51;;;;;;;25.00;14.73;;;;;;;;;;5025686;28;20426;-57
2023/01/18 14:08:26;;;;;;;24.38;14.07;;;;;;;;;;5015187;28;20025;-61
2023/01/18 14:10:54;;;;;;;20.83;13.65;;;;;;;;;;5014441;28;20034;-58
2023/01/18 14:13:40;;;;;;;22.63;12.90;;;;;;;;;;5010096;28;20021;-62
2023/01/18 14:16:15;;;;;;;21.42;13.82;;;;;;;;;;5015147;28;20052;-60
2023/01/18 14:18:48;;;;;;;21.77;14.55;;;;;;;;;;5011758;28;20053;-59
2023/01/18 14:21:29;;;;;;;22.08;14.02;;;;;;;;;;5012293;28;20109;-61
2023/01/18 14:23:58;;;;;;;23.02;13.95;;;;;;;;;;5016441;28;20040;-60
2023/01/18 14:26:27;;;;;;;20.45;13.25;;;;;;;;;;5032514;28;20144;-60
2023/01/18 14:28:58;;;;;;;21.27;13.05;;;;;;;;;;5033671;28;20512;-61
2023/01/18 14:31:27;;;;;;;20.30;12.93;;;;;;;;;;5032909;28;20113;-58
2023/01/18 14:33:53;;;;;;;21.70;13.40;;;;;;;;;;5031244;28;20025;-60
2023/01/18 14:36:24;;;;;;;22.27;14.68;;;;;;;;;;5033004;28;20390;-55
2023/01/18 14:39:08;;;;;;;24.02;14.20;;;;;;;;;;5032503;28;20064;-60
2023/01/18 14:41:37;;;;;;;21.30;13.90;;;;;;;;;;5031438;28;20025;-60
2023/01/18 14:44:03;;;;;;;24.42;13.23;;;;;;;;;;5031994;28;20493;-56
2023/01/18 14:46:29;;;;;;;24.30;13.93;;;;;;;;;;5032127;28;20057;-58
2023/01/18 14:48:56;;;;;;;21.92;13.50;;;;;;;;;;5027820;28;20498;-57
2023/01/18 14:51:24;;;;;;;24.75;14.70;;;;;;;;;;5020475;28;20033;-57
2023/01/18 14:53:56;;;;;;;23.85;14.02;;;;;;;;;;5026251;28;20040;-61
2023/01/18 14:56:23;;;;;;;21.25;13.70;;;;;;;;;;5032182;28;20486;-59
2023/01/18 14:58:58;;;;;;;23.55;14.50;;;;;;;;;;5032193;28;20113;-58
2023/01/18 15:01:27;;;;;;;24.00;13.13;;;;;;;;;;5032108;28;20026;-59
2023/01/18 15:03:58;;;;;;;22.65;13.73;;;;;;;;;;5031660;28;20033;-61